createdAt,value
2023-02-09T00:00:24.333Z,2.83
2023-02-09T00:02:51.535Z,2.77
2023-02-09T00:05:20.375Z,2.80
2023-02-09T00:07:52.524Z,2.87
2023-02-09T00:10:26.510Z,2.60
2023-02-09T00:13:13.245Z,2.70
2023-02-09T00:15:43.048Z,2.47
2023-02-09T00:18:13.955Z,2.33
2023-02-09T00:20:44.070Z,2.73
2023-02-09T00:23:13.683Z,2.70
2023-02-09T00:25:42.217Z,2.40
2023-02-09T00:28:12.036Z,2.40
2023-02-09T00:30:45.551Z,2.50
2023-02-09T00:33:17.866Z,2.67
2023-02-09T00:35:51.073Z,2.63
2023-02-09T00:38:23.667Z,2.40
2023-02-09T00:40:57.092Z,2.50
2023-02-09T00:43:27.066Z,2.30
2023-02-09T00:45:58.445Z,2.43
2023-02-09T00:48:30.306Z,2.17
2023-02-09T00:51:02.648Z,2.50
2023-02-09T00:53:34.436Z,2.03
2023-02-09T00:56:05.567Z,2.43
2023-02-09T00:58:37.883Z,2.20
2023-02-09T01:01:10.362Z,2.20
2023-02-09T01:03:38.577Z,2.67
2023-02-09T01:06:11.134Z,2.00
2023-02-09T01:08:42.966Z,2.33
2023-02-09T01:11:12.846Z,2.60
2023-02-09T01:13:42.099Z,1.80
2023-02-09T01:16:14.307Z,2.20
2023-02-09T01:18:44.420Z,2.10
2023-02-09T01:21:20.671Z,2.50
2023-02-09T01:23:54.837Z,2.57
2023-02-09T01:26:32.476Z,2.33
2023-02-09T01:29:05.819Z,2.23
2023-02-09T01:31:37.762Z,2.10
2023-02-09T01:34:09.664Z,2.60
2023-02-09T01:36:41.471Z,2.63
2023-02-09T01:39:15.097Z,2.20
2023-02-09T01:41:47.075Z,1.87
2023-02-09T01:44:26.946Z,2.50
2023-02-09T01:46:58.499Z,2.70
2023-02-09T01:49:32.840Z,2.60
2023-02-09T01:52:31.781Z,2.67
2023-02-09T01:55:03.339Z,2.50
2023-02-09T01:57:38.640Z,2.20
2023-02-09T02:00:14.856Z,2.03
2023-02-09T02:02:46.845Z,2.53
2023-02-09T02:05:14.640Z,2.60
2023-02-09T02:07:49.646Z,2.10
2023-02-09T02:10:20.800Z,2.50
2023-02-09T02:12:52.861Z,2.37
2023-02-09T02:15:27.098Z,2.07
2023-02-09T02:18:17.022Z,2.67
2023-02-09T02:21:01.261Z,2.20
2023-02-09T02:23:49.367Z,2.33
2023-02-09T02:26:36.297Z,2.43
2023-02-09T02:29:15.098Z,2.30
2023-02-09T02:32:01.305Z,2.10
2023-02-09T02:34:51.494Z,2.13
2023-02-09T02:37:40.531Z,2.27
2023-02-09T02:40:31.166Z,2.37
2023-02-09T02:43:16.754Z,2.00
2023-02-09T02:45:53.404Z,1.93
2023-02-09T02:48:26.914Z,2.57
2023-02-09T02:51:06.778Z,2.40
2023-02-09T02:53:38.354Z,2.67
2023-02-09T02:56:12.514Z,2.80
2023-02-09T02:58:44.852Z,2.23
2023-02-09T03:01:18.786Z,2.17
2023-02-09T03:03:52.899Z,2.60
2023-02-09T03:06:23.026Z,2.83
2023-02-09T03:08:55.523Z,2.80
2023-02-09T03:11:28.549Z,2.50
2023-02-09T03:14:11.584Z,2.50
2023-02-09T03:16:59.959Z,2.47
2023-02-09T03:19:45.109Z,2.50
2023-02-09T03:22:32.524Z,2.83
2023-02-09T03:25:15.010Z,2.73
2023-02-09T03:27:51.288Z,2.20
2023-02-09T03:30:25.443Z,2.37
2023-02-09T03:32:59.581Z,2.43
2023-02-09T03:35:32.771Z,2.67
2023-02-09T03:38:04.659Z,2.37
2023-02-09T03:40:35.569Z,2.40
2023-02-09T03:43:11.382Z,2.30
2023-02-09T03:45:43.946Z,2.40
2023-02-09T03:48:15.190Z,1.93
2023-02-09T03:50:46.238Z,1.80
2023-02-09T03:53:16.180Z,2.27
2023-02-09T03:55:49.975Z,2.40
2023-02-09T03:58:22.202Z,2.20
2023-02-09T04:00:53.474Z,2.10
2023-02-09T04:03:25.148Z,2.40
2023-02-09T04:05:55.778Z,2.07
2023-02-09T04:08:27.675Z,2.10
2023-02-09T04:11:00.252Z,2.33
2023-02-09T04:13:32.008Z,1.97
2023-02-09T04:15:59.777Z,2.30
2023-02-09T04:18:30.413Z,2.40
2023-02-09T04:21:02.749Z,2.13
2023-02-09T04:23:33.330Z,2.20
2023-02-09T04:26:01.920Z,2.40
2023-02-09T04:28:33.258Z,2.10
2023-02-09T04:31:03.113Z,2.00
2023-02-09T04:33:34.125Z,2.03
2023-02-09T04:36:07.204Z,2.00
2023-02-09T04:38:39.067Z,2.53
2023-02-09T04:41:19.228Z,2.10
2023-02-09T04:43:51.948Z,2.17
2023-02-09T04:46:22.675Z,2.20
2023-02-09T04:48:52.471Z,2.10
2023-02-09T04:51:22.532Z,2.20
2023-02-09T04:53:54.324Z,2.00
2023-02-09T04:56:26.342Z,2.30
2023-02-09T04:59:15.091Z,2.33
2023-02-09T05:01:46.123Z,2.10
2023-02-09T05:04:16.825Z,2.60
2023-02-09T05:06:47.216Z,2.27
2023-02-09T05:09:16.414Z,2.40
2023-02-09T05:11:43.938Z,2.20
2023-02-09T05:14:14.403Z,2.13
2023-02-09T05:16:46.833Z,2.23
2023-02-09T05:19:19.219Z,2.30
2023-02-09T05:21:50.260Z,2.47
2023-02-09T05:24:19.756Z,1.80
2023-02-09T05:26:53.024Z,2.47
2023-02-09T05:29:22.826Z,2.23
2023-02-09T05:31:55.070Z,2.03
2023-02-09T05:34:27.046Z,2.60
2023-02-09T05:36:55.835Z,2.13
2023-02-09T05:39:27.648Z,2.33
2023-02-09T05:42:16.170Z,2.23
2023-02-09T05:44:51.504Z,2.23
2023-02-09T05:50:06.875Z,2.40
2023-02-09T05:52:38.746Z,2.77
2023-02-09T05:55:09.809Z,2.20
2023-02-09T05:57:38.888Z,2.50
2023-02-09T06:02:52.711Z,2.57
2023-02-09T06:05:24.590Z,2.60
2023-02-09T06:07:55.697Z,2.60
2023-02-09T06:10:27.357Z,2.60
2023-02-09T06:12:58.007Z,3.00
2023-02-09T06:15:29.026Z,2.87
2023-02-09T06:17:57.936Z,3.00
2023-02-09T06:20:32.538Z,2.63
2023-02-09T06:25:46.056Z,2.70
2023-02-09T06:28:18.290Z,3.20
2023-02-09T06:30:59.335Z,2.90
2023-02-09T06:33:26.865Z,3.17
2023-02-09T06:35:59.095Z,3.43
2023-02-09T06:38:31.254Z,3.20
2023-02-09T06:41:02.513Z,3.10
2023-02-09T06:43:36.933Z,3.20
2023-02-09T06:46:12.454Z,2.80
2023-02-09T06:48:41.490Z,3.53
2023-02-09T06:51:21.403Z,3.27
2023-02-09T06:53:50.035Z,3.63
2023-02-09T06:56:20.278Z,3.23
2023-02-09T06:58:51.289Z,3.40
2023-02-09T07:01:22.224Z,3.30
2023-02-09T07:06:38.831Z,3.50
2023-02-09T07:09:10.957Z,3.80
2023-02-09T07:11:40.623Z,3.83
2023-02-09T07:14:12.914Z,4.23
2023-02-09T07:16:44.367Z,4.13
2023-02-09T07:19:14.031Z,7.70
2023-02-09T07:21:46.290Z,8.17
2023-02-09T07:24:18.309Z,8.93
2023-02-09T07:26:51.038Z,9.27
2023-02-09T07:29:22.745Z,8.80
2023-02-09T07:31:53.713Z,9.73
2023-02-09T07:34:23.225Z,8.43
2023-02-09T07:36:54.010Z,9.20
2023-02-09T07:39:25.584Z,8.97
2023-02-09T07:41:56.720Z,8.17
2023-02-09T07:44:28.227Z,8.33
2023-02-09T07:46:58.901Z,7.20
2023-02-09T07:49:30.823Z,7.73
2023-02-09T07:52:02.715Z,8.10
2023-02-09T07:54:34.376Z,7.03
2023-02-09T07:57:04.212Z,6.90
2023-02-09T07:59:35.924Z,7.03
2023-02-09T08:02:07.014Z,6.80
2023-02-09T08:04:41.179Z,6.87
2023-02-09T08:07:09.589Z,6.70
2023-02-09T08:09:38.488Z,6.43
2023-02-09T08:12:09.955Z,6.47
2023-02-09T08:17:33.277Z,6.57
2023-02-09T08:20:08.064Z,5.97
2023-02-09T08:22:41.613Z,6.53
2023-02-09T08:25:19.994Z,7.00
2023-02-09T08:27:52.394Z,6.30
2023-02-09T08:30:20.122Z,5.87
2023-02-09T08:32:50.712Z,5.43
2023-02-09T08:35:22.781Z,6.03
2023-02-09T08:37:53.819Z,5.83
2023-02-09T08:40:24.384Z,5.80
2023-02-09T08:42:53.161Z,5.87
2023-02-09T08:45:24.342Z,6.07
2023-02-09T08:50:42.914Z,5.37
2023-02-09T08:53:14.954Z,4.83
2023-02-09T08:55:44.197Z,4.87
2023-02-09T08:58:14.682Z,4.67
2023-02-09T09:00:43.863Z,4.60
2023-02-09T09:03:16.722Z,4.80
2023-02-09T09:05:46.477Z,4.57
2023-02-09T09:08:19.202Z,5.20
2023-02-09T09:10:48.953Z,4.53
2023-02-09T09:13:21.060Z,4.43
2023-02-09T09:15:49.925Z,4.90
2023-02-09T09:18:22.017Z,4.33
2023-02-09T09:20:51.730Z,4.17
2023-02-09T09:23:21.507Z,4.30
2023-02-09T09:25:53.605Z,4.10
2023-02-09T09:28:25.504Z,3.90
2023-02-09T09:30:55.057Z,4.27
2023-02-09T09:33:24.965Z,3.70
2023-02-09T09:35:55.902Z,3.90
2023-02-09T09:38:27.554Z,4.07
2023-02-09T09:40:58.873Z,4.27
2023-02-09T09:43:29.261Z,4.10
2023-02-09T09:46:00.112Z,3.63
2023-02-09T09:48:35.222Z,4.00
2023-02-09T09:51:21.775Z,3.90
2023-02-09T09:53:54.769Z,4.50
2023-02-09T09:56:27.266Z,3.50
2023-02-09T10:01:41.999Z,4.30
2023-02-09T10:04:16.490Z,4.03
2023-02-09T10:06:47.765Z,4.53
2023-02-09T10:09:41.431Z,4.40
2023-02-09T10:12:21.933Z,4.73
2023-02-09T10:14:52.285Z,3.97
2023-02-09T10:17:23.297Z,4.13
2023-02-09T10:22:49.410Z,4.37
2023-02-09T10:25:38.594Z,4.43
2023-02-09T10:28:23.101Z,4.10
2023-02-09T10:30:58.606Z,4.23
2023-02-09T10:33:47.432Z,4.83
2023-02-09T10:36:35.155Z,4.77
2023-02-09T10:39:18.401Z,4.33
2023-02-09T10:41:48.574Z,4.03
2023-02-09T10:44:24.985Z,4.37
2023-02-09T10:47:14.100Z,3.93
2023-02-09T10:49:42.645Z,4.10
2023-02-09T10:52:17.182Z,4.17
2023-02-09T10:54:56.693Z,4.37
2023-02-09T10:57:42.182Z,4.10
2023-02-09T11:00:25.255Z,3.57
2023-02-09T11:03:04.555Z,4.40
2023-02-09T11:05:55.231Z,4.73
2023-02-09T11:08:29.261Z,4.47
2023-02-09T11:11:11.879Z,4.23
2023-02-09T11:13:45.062Z,4.30
2023-02-09T11:16:35.117Z,4.33
2023-02-09T11:19:12.088Z,4.37
2023-02-09T11:22:00.126Z,3.87
2023-02-09T11:24:48.569Z,4.77
2023-02-09T11:27:42.561Z,4.53
2023-02-09T11:30:32.121Z,4.53
2023-02-09T11:33:11.914Z,4.73
2023-02-09T11:35:50.709Z,4.13
2023-02-09T11:38:25.092Z,4.30
2023-02-09T11:40:57.331Z,3.90
2023-02-09T11:43:42.884Z,4.30
2023-02-09T11:49:18.161Z,4.30
2023-02-09T11:51:46.030Z,3.60
2023-02-09T11:54:31.923Z,3.97
2023-02-09T11:57:07.167Z,4.00
2023-02-09T11:59:49.665Z,3.50
2023-02-09T12:02:35.972Z,3.77
2023-02-09T12:05:08.541Z,4.27
2023-02-09T12:08:00.955Z,3.73
2023-02-09T12:10:50.003Z,3.67
2023-02-09T12:13:20.512Z,4.10
2023-02-09T12:15:55.090Z,3.60
2023-02-09T12:18:28.433Z,3.23
2023-02-09T12:20:59.715Z,3.90
2023-02-09T12:23:39.806Z,4.13
2023-02-09T12:26:30.796Z,3.87
2023-02-09T12:29:24.900Z,3.63
2023-02-09T12:32:08.913Z,3.83
2023-02-09T12:34:51.007Z,3.83
2023-02-09T12:37:32.407Z,4.17
2023-02-09T12:40:12.962Z,3.53
2023-02-09T12:42:51.801Z,4.03
2023-02-09T12:45:42.710Z,3.60
2023-02-09T12:48:11.210Z,3.60
2023-02-09T12:50:56.996Z,3.73
2023-02-09T12:53:27.954Z,3.70
2023-02-09T12:56:12.247Z,3.93
2023-02-09T12:58:55.506Z,3.83
2023-02-09T13:01:25.123Z,3.63
2023-02-09T13:06:47.876Z,4.37
2023-02-09T13:09:19.987Z,3.93
2023-02-09T13:11:51.138Z,4.17
2023-02-09T13:14:25.327Z,4.30
2023-02-09T13:16:59.919Z,3.90
2023-02-09T13:19:48.404Z,3.40
2023-02-09T13:22:25.512Z,3.63
2023-02-09T13:25:18.675Z,4.13
2023-02-09T13:27:52.446Z,4.20
2023-02-09T13:30:34.128Z,4.07
2023-02-09T13:33:06.606Z,4.17
2023-02-09T13:35:38.742Z,3.77
2023-02-09T13:38:17.944Z,4.07
2023-02-09T13:40:50.810Z,4.47
2023-02-09T13:43:40.538Z,4.27
2023-02-09T13:46:27.441Z,3.73
2023-02-09T13:48:57.454Z,4.07
2023-02-09T13:51:32.564Z,4.10
2023-02-09T13:54:06.252Z,3.67
2023-02-09T13:56:42.184Z,4.40
2023-02-09T13:59:15.494Z,4.17
2023-02-09T14:01:48.766Z,4.10
2023-02-09T14:04:27.411Z,4.37
2023-02-09T14:07:09.053Z,3.80
2023-02-09T14:09:46.552Z,3.90
2023-02-09T14:12:56.304Z,4.20
2023-02-09T14:15:54.206Z,4.17
2023-02-09T14:18:29.254Z,4.17
2023-02-09T14:21:06.252Z,4.27
2023-02-09T14:23:37.628Z,4.50
2023-02-09T14:26:23.670Z,4.13
2023-02-09T14:29:09.719Z,4.57
2023-02-09T14:32:07.269Z,4.47
2023-02-09T14:34:40.665Z,4.27
2023-02-09T14:37:14.908Z,4.17
2023-02-09T14:39:57.191Z,3.90
2023-02-09T14:42:29.252Z,4.10
2023-02-09T14:45:04.595Z,4.33
2023-02-09T14:47:51.767Z,4.47
2023-02-09T14:50:35.410Z,4.50
2023-02-09T14:53:09.247Z,4.40
2023-02-09T14:55:43.876Z,4.57
2023-02-09T14:58:33.713Z,4.77
2023-02-09T15:01:01.985Z,4.63
2023-02-09T15:03:34.197Z,4.77
2023-02-09T15:06:06.156Z,4.23
2023-02-09T15:08:38.406Z,3.80
2023-02-09T15:11:30.907Z,4.57
2023-02-09T15:14:05.020Z,4.00
2023-02-09T15:16:37.089Z,4.10
2023-02-09T15:19:18.097Z,5.00
2023-02-09T15:22:05.316Z,4.47
2023-02-09T15:24:39.783Z,4.40
2023-02-09T15:27:10.087Z,4.70
2023-02-09T15:29:40.729Z,4.33
2023-02-09T15:32:16.627Z,4.67
2023-02-09T15:34:48.515Z,5.03
2023-02-09T15:37:47.417Z,4.63
2023-02-09T15:40:43.144Z,4.73
2023-02-09T15:43:33.163Z,4.63
2023-02-09T15:46:20.146Z,4.40
2023-02-09T15:48:50.890Z,4.63
2023-02-09T15:51:21.118Z,5.30
2023-02-09T15:53:52.200Z,5.00
2023-02-09T15:56:22.612Z,5.00
2023-02-09T15:58:56.422Z,4.83
2023-02-09T16:01:27.233Z,4.57
2023-02-09T16:04:12.904Z,5.00
2023-02-09T16:06:50.356Z,5.13
2023-02-09T16:09:23.566Z,4.37
2023-02-09T16:11:54.282Z,4.67
2023-02-09T16:14:26.452Z,4.93
2023-02-09T16:16:56.194Z,5.40
2023-02-09T16:19:27.059Z,4.17
2023-02-09T16:22:04.156Z,5.07
2023-02-09T16:24:44.567Z,5.30
2023-02-09T16:27:18.768Z,4.87
2023-02-09T16:29:50.016Z,5.13
2023-02-09T16:32:22.234Z,4.93
2023-02-09T16:34:57.684Z,4.30
2023-02-09T16:37:37.933Z,4.83
2023-02-09T16:40:19.982Z,5.30
2023-02-09T16:42:50.983Z,4.83
2023-02-09T16:48:23.992Z,4.93
2023-02-09T16:50:57.099Z,5.20
2023-02-09T16:53:31.504Z,5.20
2023-02-09T16:56:04.893Z,5.03
2023-02-09T16:58:33.802Z,4.80
2023-02-09T17:01:05.981Z,4.50
2023-02-09T17:03:39.919Z,5.00
2023-02-09T17:06:16.810Z,4.60
2023-02-09T17:08:51.730Z,4.87
2023-02-09T17:11:23.767Z,5.03
2023-02-09T17:13:52.308Z,5.13
2023-02-09T17:16:23.751Z,5.10
2023-02-09T17:18:57.323Z,4.60
2023-02-09T17:21:28.057Z,5.03
2023-02-09T17:23:57.903Z,4.90
2023-02-09T17:26:28.001Z,4.97
2023-02-09T17:28:57.798Z,4.90
2023-02-09T17:31:38.230Z,5.07
2023-02-09T17:34:26.215Z,4.80
2023-02-09T17:36:59.559Z,4.90
2023-02-09T17:39:31.929Z,5.03
2023-02-09T17:42:07.467Z,4.90
2023-02-09T17:44:46.019Z,4.97
2023-02-09T17:47:27.115Z,4.70
2023-02-09T17:49:59.964Z,4.87
2023-02-09T17:55:23.365Z,4.83
2023-02-09T17:58:00.789Z,5.53
2023-02-09T18:00:33.140Z,5.60
2023-02-09T18:03:01.540Z,4.87
2023-02-09T18:05:40.630Z,4.97
2023-02-09T18:08:10.257Z,5.23
2023-02-09T18:10:42.490Z,5.40
2023-02-09T18:13:14.269Z,5.77
2023-02-09T18:15:44.703Z,5.00
2023-02-09T18:18:15.786Z,5.07
2023-02-09T18:20:46.691Z,5.27
2023-02-09T18:23:19.621Z,5.33
2023-02-09T18:25:52.496Z,5.20
2023-02-09T18:28:24.667Z,5.40
2023-02-09T18:30:56.915Z,5.43
2023-02-09T18:33:25.196Z,4.97
2023-02-09T18:35:57.140Z,4.97
2023-02-09T18:38:26.471Z,5.17
2023-02-09T18:40:58.587Z,5.43
2023-02-09T18:43:29.764Z,5.13
2023-02-09T18:46:01.727Z,5.40
2023-02-09T18:48:33.469Z,5.37
2023-02-09T18:51:04.045Z,4.70
2023-02-09T18:53:32.226Z,5.23
2023-02-09T18:58:50.418Z,5.33
2023-02-09T19:01:23.145Z,4.30
2023-02-09T19:03:51.421Z,5.50
2023-02-09T19:06:28.258Z,5.50
2023-02-09T19:08:57.200Z,5.43
2023-02-09T19:11:28.893Z,5.67
2023-02-09T19:14:17.938Z,4.93
2023-02-09T19:16:48.402Z,5.30
2023-02-09T19:19:32.672Z,5.50
2023-02-09T19:22:03.920Z,5.77
2023-02-09T19:24:33.695Z,9.73
2023-02-09T19:27:08.479Z,21.67
2023-02-09T19:29:41.733Z,14.53
2023-02-09T19:32:14.490Z,15.27
2023-02-09T19:34:45.957Z,13.27
2023-02-09T19:37:19.415Z,14.23
2023-02-09T19:40:18.083Z,12.03
2023-02-09T19:42:46.567Z,12.03
2023-02-09T19:45:15.952Z,12.53
2023-02-09T19:47:46.466Z,10.77
2023-02-09T19:52:57.903Z,10.17
2023-02-09T19:55:29.796Z,9.70
2023-02-09T19:58:01.764Z,10.70
2023-02-09T20:00:34.281Z,9.10
2023-02-09T20:03:06.530Z,9.03
2023-02-09T20:05:38.058Z,9.57
2023-02-09T20:08:10.075Z,8.63
2023-02-09T20:10:40.754Z,9.40
2023-02-09T20:13:11.629Z,9.33
2023-02-09T20:15:49.119Z,9.07
2023-02-09T20:18:20.754Z,9.23
2023-02-09T20:20:52.505Z,8.13
2023-02-09T20:23:20.978Z,8.80
2023-02-09T20:25:53.006Z,7.70
2023-02-09T20:28:24.512Z,8.50
2023-02-09T20:30:54.865Z,8.40
2023-02-09T20:33:34.999Z,8.23
2023-02-09T20:36:08.418Z,8.33
2023-02-09T20:38:39.986Z,7.73
2023-02-09T20:41:16.740Z,7.67
2023-02-09T20:44:06.855Z,7.47
2023-02-09T20:46:55.886Z,7.90
2023-02-09T20:49:38.922Z,7.73
2023-02-09T20:52:11.773Z,7.03
2023-02-09T20:54:43.713Z,7.37
2023-02-09T20:57:15.885Z,7.23
2023-02-09T20:59:48.054Z,7.27
2023-02-09T21:02:20.901Z,8.40
2023-02-09T21:04:48.298Z,8.43
2023-02-09T21:10:05.194Z,7.23
2023-02-09T21:12:34.673Z,7.67
2023-02-09T21:15:04.575Z,7.17
2023-02-09T21:17:36.034Z,7.27
2023-02-09T21:20:10.143Z,7.17
2023-02-09T21:22:39.490Z,7.07
2023-02-09T21:25:11.077Z,6.90
2023-02-09T21:27:46.774Z,7.10
2023-02-09T21:30:19.227Z,7.17
2023-02-09T21:32:51.259Z,7.13
2023-02-09T21:35:24.210Z,7.07
2023-02-09T21:37:55.771Z,6.77
2023-02-09T21:40:28.363Z,6.33
2023-02-09T21:42:59.748Z,7.23
2023-02-09T21:45:27.259Z,7.17
2023-02-09T21:50:45.646Z,6.40
2023-02-09T21:53:17.389Z,7.03
2023-02-09T21:55:48.419Z,6.80
2023-02-09T21:58:20.515Z,6.80
2023-02-09T22:00:56.584Z,6.70
2023-02-09T22:03:28.493Z,7.00
2023-02-09T22:06:12.580Z,6.47
2023-02-09T22:08:43.755Z,6.73
2023-02-09T22:11:19.048Z,6.30
2023-02-09T22:13:51.688Z,6.10
2023-02-09T22:19:13.524Z,6.47
2023-02-09T22:21:44.794Z,6.23
2023-02-09T22:24:20.257Z,6.40
2023-02-09T22:26:52.412Z,6.17
2023-02-09T22:29:24.337Z,5.47
2023-02-09T22:31:57.879Z,5.83
2023-02-09T22:34:27.584Z,5.73
2023-02-09T22:37:01.644Z,6.00
2023-02-09T22:39:33.403Z,5.60
2023-02-09T22:42:03.576Z,5.97
2023-02-09T22:44:36.813Z,5.97
2023-02-09T22:47:13.054Z,5.20
2023-02-09T22:52:33.270Z,5.53
2023-02-09T22:55:03.617Z,5.53
2023-02-09T22:57:35.199Z,5.33
2023-02-09T23:00:07.552Z,4.80
2023-02-09T23:02:39.777Z,5.40
2023-02-09T23:05:09.752Z,5.13
2023-02-09T23:07:38.100Z,5.60
2023-02-09T23:10:10.412Z,5.60
2023-02-09T23:12:40.726Z,5.00
2023-02-09T23:15:11.144Z,5.13
2023-02-09T23:17:41.096Z,5.17
2023-02-09T23:20:13.860Z,5.20
2023-02-09T23:22:45.382Z,5.67
2023-02-09T23:25:17.407Z,5.50
2023-02-09T23:27:44.644Z,5.17
2023-02-09T23:30:16.883Z,5.47
2023-02-09T23:35:39.430Z,5.50
2023-02-09T23:38:15.400Z,5.20
2023-02-09T23:40:47.080Z,5.70
2023-02-09T23:43:19.531Z,5.10
2023-02-09T23:45:51.462Z,5.03
2023-02-09T23:48:22.978Z,4.90
2023-02-09T23:50:54.390Z,5.90
2023-02-09T23:53:24.063Z,5.20
2023-02-09T23:55:54.426Z,5.67
2023-02-09T23:58:23.479Z,4.93
